createdAt,value
2023-05-24T04:31:33.161Z,6.5168
2023-05-24T04:32:35.000Z,6.3080
2023-05-24T04:33:37.036Z,8.2305
2023-05-24T04:34:39.164Z,6.4647
2023-05-24T04:35:41.114Z,6.2534
2023-05-24T04:36:43.148Z,8.1235
2023-05-24T04:37:45.217Z,7.0027
2023-05-24T04:38:47.278Z,7.6327
2023-05-24T04:39:49.379Z,7.2450
2023-05-24T04:40:51.345Z,7.6474
2023-05-24T04:41:53.407Z,7.3715
2023-05-24T04:42:55.420Z,5.9825
2023-05-24T04:43:57.449Z,6.7317
2023-05-24T04:44:59.514Z,6.5727
2023-05-24T04:46:01.559Z,5.0446
2023-05-24T04:47:03.687Z,7.2153
2023-05-24T04:48:05.696Z,6.6340
2023-05-24T04:49:07.673Z,6.5951
2023-05-24T04:50:09.761Z,6.7919
2023-05-24T04:51:11.781Z,6.7369
2023-05-24T04:52:13.838Z,6.6413
2023-05-24T04:53:15.871Z,6.1515
2023-05-24T04:54:17.914Z,6.3423
2023-05-24T04:55:19.949Z,6.1276
2023-05-24T04:56:21.989Z,5.5734
2023-05-24T04:57:24.035Z,6.6244
2023-05-24T04:58:26.087Z,8.4748
2023-05-24T04:59:28.111Z,8.1707
2023-05-24T05:00:30.174Z,6.8622
2023-05-24T05:01:32.222Z,7.0458
2023-05-24T05:02:34.301Z,6.6803
2023-05-24T05:03:36.412Z,7.6229
2023-05-24T05:04:38.326Z,6.3618
2023-05-24T05:05:40.376Z,5.5352
2023-05-24T05:06:42.442Z,6.4026
2023-05-24T05:07:44.496Z,6.1489
2023-05-24T05:08:46.519Z,7.3913
2023-05-24T05:09:48.588Z,7.5059
2023-05-24T05:10:50.633Z,5.1116
2023-05-24T05:11:52.672Z,6.8307
2023-05-24T05:12:54.706Z,6.8113
2023-05-24T05:13:56.798Z,8.0385
2023-05-24T05:14:58.796Z,5.9673
2023-05-24T05:16:00.882Z,6.6973
2023-05-24T05:17:02.912Z,6.6605
2023-05-24T05:18:04.991Z,5.2752
2023-05-24T05:19:07.007Z,5.3064
2023-05-24T05:20:09.133Z,6.2580
2023-05-24T05:21:11.070Z,6.7754
2023-05-24T05:22:13.114Z,5.8352
2023-05-24T05:23:15.287Z,5.2044
2023-05-24T05:24:17.243Z,6.3868
2023-05-24T05:25:19.277Z,6.2850
2023-05-24T05:26:21.313Z,5.9962
2023-05-24T05:27:23.355Z,6.2452
2023-05-24T05:28:25.398Z,7.9493
2023-05-24T05:29:27.424Z,6.1266
2023-05-24T05:30:29.513Z,5.6402
2023-05-24T05:31:31.538Z,5.4973
2023-05-24T05:32:33.633Z,7.1482
2023-05-24T05:33:35.643Z,6.8768
2023-05-24T05:34:37.671Z,5.9652
2023-05-24T05:35:39.718Z,6.2992
2023-05-24T05:36:41.754Z,6.5314
2023-05-24T05:37:43.852Z,5.4874
2023-05-24T05:38:45.830Z,5.6910
2023-05-24T05:39:47.913Z,5.8059
2023-05-24T05:40:49.949Z,6.6314
2023-05-24T05:41:51.987Z,5.1886
2023-05-24T05:42:54.025Z,5.1114
2023-05-24T05:43:56.347Z,6.2824
2023-05-24T05:44:58.166Z,5.4340
2023-05-24T05:46:00.230Z,5.6803
2023-05-24T05:47:02.254Z,5.4915
2023-05-24T05:48:04.334Z,5.2798
2023-05-24T05:49:06.398Z,6.3774
2023-05-24T05:50:08.406Z,6.1524
2023-05-24T05:51:10.450Z,6.1237
2023-05-24T05:52:12.482Z,5.0192
2023-05-24T05:53:14.523Z,4.9467
2023-05-24T05:54:16.601Z,5.7480
2023-05-24T05:55:18.594Z,6.0119
2023-05-24T05:56:20.647Z,5.6120
2023-05-24T05:57:22.753Z,6.8109
2023-05-24T05:58:24.757Z,6.5276
2023-05-24T05:59:26.804Z,6.0064
2023-05-24T06:00:28.957Z,5.0015
2023-05-24T06:01:30.866Z,6.3011
2023-05-24T06:02:32.970Z,5.9317
2023-05-24T06:03:35.200Z,5.2038
2023-05-24T06:04:37.059Z,5.7915
2023-05-24T06:05:39.063Z,4.7847
2023-05-24T06:06:41.154Z,6.2567
2023-05-24T06:07:43.165Z,4.4439
2023-05-24T06:08:45.282Z,6.0433
2023-05-24T06:09:47.310Z,6.5519
2023-05-24T06:10:52.039Z,7.0151
2023-05-24T06:11:51.389Z,6.5609
2023-05-24T06:12:53.473Z,6.5532
2023-05-24T06:13:55.457Z,6.3705
2023-05-24T06:14:57.561Z,6.2139
2023-05-24T06:15:59.566Z,6.7236
2023-05-24T06:17:01.690Z,7.1543
2023-05-24T06:18:03.819Z,7.5389
2023-05-24T06:19:06.603Z,8.4938
2023-05-24T06:20:07.764Z,7.1621
2023-05-24T06:21:09.807Z,5.8570
2023-05-24T06:22:11.807Z,6.2227
2023-05-24T06:23:14.016Z,7.0194
2023-05-24T06:24:15.901Z,6.6213
2023-05-24T06:25:18.008Z,8.4457
2023-05-24T06:26:20.002Z,6.8554
2023-05-24T06:27:22.151Z,7.7025
2023-05-24T06:28:24.080Z,8.1495
2023-05-24T06:29:26.154Z,7.7491
2023-05-24T06:30:28.385Z,7.4748
2023-05-24T06:31:30.221Z,7.6623
2023-05-24T06:32:32.380Z,6.8062
2023-05-24T06:33:35.766Z,8.2379
2023-05-24T06:34:36.371Z,6.4747
2023-05-24T06:35:38.413Z,7.3001
2023-05-24T06:36:40.465Z,8.5373
2023-05-24T06:37:42.497Z,8.2816
2023-05-24T06:38:44.514Z,6.7036
2023-05-24T06:39:46.626Z,7.3026
2023-05-24T06:40:48.605Z,6.3972
2023-05-24T06:41:50.659Z,7.9796
2023-05-24T06:42:52.736Z,7.1865
2023-05-24T06:43:54.772Z,7.5558
2023-05-24T06:44:56.841Z,8.6571
2023-05-24T06:45:58.884Z,6.7939
2023-05-24T06:47:01.007Z,7.8344
2023-05-24T06:48:05.024Z,7.7468
2023-05-24T06:49:05.054Z,8.5437
2023-05-24T06:50:07.033Z,7.6363
2023-05-24T06:51:09.091Z,7.2490
2023-05-24T06:52:11.130Z,6.6452
2023-05-24T06:53:13.236Z,7.1207
2023-05-24T06:54:15.243Z,7.7338
2023-05-24T06:55:17.254Z,6.5814
2023-05-24T06:56:19.322Z,7.1815
2023-05-24T06:57:21.355Z,8.3022
2023-05-24T06:58:23.392Z,7.3438
2023-05-24T06:59:25.473Z,7.8448
2023-05-24T07:00:27.583Z,7.0066
2023-05-24T07:01:29.671Z,5.8814
2023-05-24T07:02:31.622Z,6.5862
2023-05-24T07:03:33.642Z,7.0667
2023-05-24T07:04:37.532Z,6.0835
2023-05-24T07:05:37.719Z,5.9341
2023-05-24T07:06:39.829Z,6.4206
2023-05-24T07:07:41.817Z,7.0576
2023-05-24T07:08:43.833Z,6.6120
2023-05-24T07:09:45.896Z,6.8183
2023-05-24T07:10:48.119Z,6.8121
2023-05-24T07:11:50.020Z,6.9990
2023-05-24T07:12:52.016Z,7.0161
2023-05-24T07:13:54.076Z,6.8890
2023-05-24T07:14:56.120Z,6.8269
2023-05-24T07:15:58.158Z,6.2230
2023-05-24T07:17:00.340Z,6.7255
2023-05-24T07:18:02.342Z,7.0744
2023-05-24T07:19:04.949Z,7.1822
2023-05-24T07:20:06.359Z,7.9716
2023-05-24T07:21:08.404Z,6.5694
2023-05-24T07:22:10.496Z,7.5838
2023-05-24T07:23:12.552Z,7.0381
2023-05-24T07:24:16.229Z,6.0906
2023-05-24T07:25:16.581Z,5.5179
2023-05-24T07:26:18.644Z,7.4542
2023-05-24T07:27:20.650Z,6.5302
2023-05-24T07:28:22.741Z,7.1116
2023-05-24T07:29:24.981Z,7.1727
2023-05-24T07:30:32.301Z,7.7401
2023-05-24T07:31:28.870Z,7.6416
2023-05-24T07:32:30.990Z,7.0340
2023-05-24T07:33:33.040Z,8.6214
2023-05-24T07:34:35.027Z,6.9268
2023-05-24T07:35:37.087Z,7.4274
2023-05-24T07:36:39.301Z,7.0305
2023-05-24T07:37:41.228Z,7.5228
2023-05-24T07:38:43.328Z,6.5413
2023-05-24T07:39:45.224Z,7.9558
2023-05-24T07:40:47.340Z,7.4842
2023-05-24T07:41:49.330Z,6.5371
2023-05-24T07:42:51.416Z,5.5563
2023-05-24T07:43:53.478Z,6.1627
2023-05-24T07:44:55.549Z,6.1696
2023-05-24T07:45:57.522Z,7.7667
2023-05-24T07:46:59.731Z,7.1519
2023-05-24T07:48:01.861Z,6.6395
2023-05-24T07:49:03.673Z,7.6486
2023-05-24T07:50:06.065Z,6.6478
2023-05-24T07:51:08.059Z,6.9221
2023-05-24T07:52:09.784Z,9.7648
2023-05-24T07:53:11.853Z,7.5789
2023-05-24T07:54:13.894Z,7.8935
2023-05-24T07:55:15.940Z,7.8534
2023-05-24T07:56:17.953Z,7.3656
2023-05-24T07:57:20.035Z,6.3037
2023-05-24T07:58:22.093Z,7.1306
2023-05-24T07:59:24.106Z,6.4190
2023-05-24T08:00:26.259Z,8.6907
2023-05-24T08:01:28.213Z,7.2969
2023-05-24T08:02:30.439Z,6.1693
2023-05-24T08:03:32.379Z,6.2835
2023-05-24T08:04:34.367Z,7.9635
2023-05-24T08:05:36.562Z,6.7933
2023-05-24T08:06:38.496Z,6.4334
2023-05-24T08:07:40.469Z,6.6241
2023-05-24T08:08:42.555Z,8.6179
2023-05-24T08:09:44.651Z,7.3237
2023-05-24T08:10:46.604Z,7.1953
2023-05-24T08:11:48.664Z,6.5245
2023-05-24T08:12:50.667Z,6.2075
2023-05-24T08:13:52.721Z,7.1293
2023-05-24T08:14:55.272Z,7.2378
2023-05-24T08:15:56.879Z,8.9618
2023-05-24T08:16:58.887Z,8.6159
2023-05-24T08:18:00.973Z,7.1196
2023-05-24T08:19:03.017Z,7.5226
2023-05-24T08:20:05.084Z,6.6909
2023-05-24T08:21:07.035Z,6.1872
2023-05-24T08:22:09.239Z,6.9372
2023-05-24T08:23:11.351Z,7.9374
2023-05-24T08:24:13.186Z,7.1456
2023-05-24T08:25:16.974Z,7.1074
2023-05-24T08:26:17.486Z,6.0239
2023-05-24T08:27:19.314Z,8.0851
2023-05-24T08:28:21.484Z,8.5671
2023-05-24T08:29:23.423Z,8.4534
2023-05-24T08:30:25.734Z,6.8705
2023-05-24T08:31:27.564Z,5.7716
2023-05-24T08:32:29.587Z,6.6718
2023-05-24T08:33:31.630Z,7.8846
2023-05-24T08:34:33.747Z,7.3767
2023-05-24T08:35:35.776Z,8.1502
2023-05-24T08:36:37.831Z,7.6346
2023-05-24T08:37:39.955Z,8.3432
2023-05-24T08:38:41.927Z,7.2206
2023-05-24T08:39:44.120Z,9.7150
2023-05-24T08:40:46.076Z,7.9419
2023-05-24T08:42:01.026Z,7.2260
2023-05-24T08:42:50.151Z,5.9521
2023-05-24T08:43:52.185Z,6.6658
2023-05-24T08:44:54.205Z,7.5569
2023-05-24T08:45:56.282Z,8.4947
2023-05-24T08:46:58.369Z,7.8774
2023-05-24T08:48:00.463Z,8.1907
2023-05-24T08:49:02.548Z,7.5752
2023-05-24T08:50:04.499Z,7.8846
2023-05-24T08:51:06.630Z,7.1353
2023-05-24T08:52:08.642Z,8.1236
2023-05-24T08:53:10.573Z,7.5825
2023-05-24T08:54:12.662Z,6.5855
2023-05-24T08:55:14.680Z,7.2528
2023-05-24T08:56:16.780Z,7.3290
2023-05-24T08:57:18.756Z,7.6413
2023-05-24T08:58:20.838Z,6.7243
2023-05-24T08:59:22.856Z,8.5061
2023-05-24T09:00:24.931Z,9.4056
2023-05-24T09:01:28.953Z,8.1108
2023-05-24T09:02:29.007Z,7.9253
2023-05-24T09:03:31.148Z,6.8381
2023-05-24T09:04:33.109Z,8.1024
2023-05-24T09:05:35.168Z,7.5516
2023-05-24T09:06:37.191Z,8.4142
2023-05-24T09:07:39.259Z,6.8039
2023-05-24T09:08:43.628Z,7.2925
2023-05-24T09:09:43.323Z,7.7942
2023-05-24T09:10:54.554Z,7.6809
2023-05-24T09:11:47.423Z,6.5411
2023-05-24T09:12:49.470Z,7.8132
2023-05-24T09:13:51.488Z,8.4989
2023-05-24T09:14:53.621Z,7.4749
2023-05-24T09:15:55.661Z,7.0097
2023-05-24T09:16:57.665Z,7.5068
2023-05-24T09:17:59.702Z,7.1511
2023-05-24T09:19:01.747Z,7.3485
2023-05-24T09:20:03.856Z,7.6735
2023-05-24T09:21:05.866Z,9.5141
2023-05-24T09:22:08.202Z,7.4051
2023-05-24T09:23:10.032Z,6.7891
2023-05-24T09:24:11.995Z,7.6703
2023-05-24T09:25:14.083Z,7.4588
2023-05-24T09:26:16.120Z,7.6149
2023-05-24T09:27:18.122Z,7.3128
2023-05-24T09:28:20.167Z,7.3252
2023-05-24T09:29:22.359Z,7.1397
2023-05-24T09:30:24.279Z,7.6515
2023-05-24T09:31:26.344Z,7.2507
2023-05-24T09:32:28.437Z,7.2252
2023-05-24T09:33:30.393Z,8.7631
2023-05-24T09:34:32.407Z,7.9235
2023-05-24T09:35:34.645Z,7.6634
2023-05-24T09:36:36.545Z,8.6741
2023-05-24T09:37:38.757Z,8.7612
2023-05-24T09:38:40.691Z,6.5114
2023-05-24T09:39:42.701Z,7.1944
2023-05-24T09:40:44.727Z,7.1912
2023-05-24T09:41:46.910Z,6.5402
2023-05-24T09:42:49.834Z,7.7051
2023-05-24T09:43:50.896Z,8.0539
2023-05-24T09:44:53.184Z,7.1374
2023-05-24T09:45:54.960Z,7.0065
2023-05-24T09:46:57.027Z,6.5298
2023-05-24T09:47:59.137Z,6.2169
2023-05-24T09:49:01.081Z,7.2966
2023-05-24T09:50:03.165Z,6.4377
2023-05-24T09:51:05.196Z,7.6988
2023-05-24T09:52:07.305Z,8.3968
2023-05-24T09:53:09.289Z,7.5424
2023-05-24T09:54:11.296Z,6.7866
2023-05-24T09:55:13.366Z,8.1990
2023-05-24T09:56:15.430Z,8.5804
2023-05-24T09:57:17.427Z,8.4787
2023-05-24T09:58:19.484Z,8.5195
2023-05-24T09:59:21.553Z,7.4232
2023-05-24T10:00:23.658Z,7.3805
2023-05-24T10:01:25.688Z,8.6992
2023-05-24T10:02:31.369Z,9.0359
2023-05-24T10:03:29.864Z,7.6539
2023-05-24T10:04:31.861Z,7.0563
2023-05-24T10:05:33.938Z,7.2947
2023-05-24T10:06:35.871Z,7.8887
2023-05-24T10:07:37.903Z,7.4181
2023-05-24T10:08:40.046Z,7.9627
2023-05-24T10:09:42.022Z,8.0555
2023-05-24T10:10:44.456Z,7.8993
2023-05-24T10:11:46.275Z,7.4545
2023-05-24T10:12:48.322Z,6.7171
2023-05-24T10:13:50.214Z,7.7627
2023-05-24T10:14:52.330Z,6.3915
2023-05-24T10:15:54.407Z,7.5321
2023-05-24T10:16:56.389Z,6.2740
2023-05-24T10:17:58.583Z,6.3780
2023-05-24T10:19:00.447Z,7.3385
2023-05-24T10:20:02.556Z,7.0043
2023-05-24T10:21:04.762Z,6.6987
2023-05-24T10:22:06.592Z,5.4582
2023-05-24T10:23:08.628Z,6.9578
2023-05-24T10:24:10.733Z,6.9858
2023-05-24T10:25:12.835Z,7.2312
2023-05-24T10:26:14.833Z,6.1165
2023-05-24T10:27:16.967Z,5.7704
2023-05-24T10:28:18.923Z,6.3952
2023-05-24T10:29:20.938Z,5.9368
2023-05-24T10:30:23.005Z,7.0759
2023-05-24T10:31:25.127Z,6.9572
2023-05-24T10:32:27.203Z,5.7226
2023-05-24T10:33:29.166Z,6.6150
2023-05-24T10:34:31.232Z,9.6178
2023-05-24T10:35:33.246Z,6.8120
2023-05-24T10:36:35.308Z,6.9876
2023-05-24T10:37:38.010Z,6.8611
2023-05-24T10:38:39.434Z,5.6872
2023-05-24T10:39:41.475Z,6.7807
2023-05-24T10:40:43.503Z,5.6642
2023-05-24T10:41:45.608Z,5.2509
2023-05-24T10:42:47.685Z,5.7378
2023-05-24T10:44:07.301Z,7.1099
2023-05-24T10:44:51.743Z,5.5505
2023-05-24T10:45:53.838Z,5.8760
2023-05-24T10:46:55.876Z,6.3950
2023-05-24T10:47:57.907Z,7.3365
2023-05-24T10:48:59.931Z,7.3736
2023-05-24T10:50:02.008Z,5.2105
2023-05-24T10:51:04.210Z,5.9788
2023-05-24T10:52:06.062Z,7.6374
2023-05-24T10:53:08.119Z,7.9111
2023-05-24T10:54:10.191Z,6.3408
2023-05-24T10:55:12.241Z,6.9493
2023-05-24T10:56:14.290Z,6.4936
2023-05-24T10:57:16.350Z,7.4217
2023-05-24T10:58:18.372Z,7.0562
2023-05-24T10:59:20.416Z,6.4419
2023-05-24T11:00:33.683Z,6.2348
2023-05-24T11:01:24.593Z,7.1549
2023-05-24T11:02:26.650Z,6.9240
2023-05-24T11:03:28.923Z,7.1207
2023-05-24T11:04:30.700Z,6.2286
2023-05-24T11:05:32.751Z,5.7409
2023-05-24T11:06:34.811Z,5.8753
2023-05-24T11:07:36.854Z,6.5835
2023-05-24T11:08:38.921Z,6.5838
2023-05-24T11:09:40.944Z,8.2630
2023-05-24T11:10:43.380Z,6.8274
2023-05-24T11:11:45.023Z,6.4570
2023-05-24T11:12:47.125Z,6.0829
2023-05-24T11:13:49.153Z,6.9123
2023-05-24T11:14:51.231Z,8.7632
2023-05-24T11:15:53.281Z,7.9361
2023-05-24T11:16:55.385Z,8.1015
2023-05-24T11:17:57.522Z,6.5654
2023-05-24T11:18:59.408Z,5.8529
2023-05-24T11:20:01.511Z,5.8044
2023-05-24T11:21:04.097Z,6.5720
2023-05-24T11:22:05.561Z,6.6071
2023-05-24T11:23:07.593Z,5.2537
2023-05-24T11:24:09.768Z,6.1258
2023-05-24T11:25:11.692Z,6.8318
2023-05-24T11:26:13.775Z,7.1446
2023-05-24T11:27:15.810Z,7.1551
2023-05-24T11:28:17.900Z,6.5146
2023-05-24T11:29:19.911Z,8.1091
2023-05-24T11:30:21.935Z,8.0693
2023-05-24T11:31:24.035Z,8.0120
2023-05-24T11:32:26.151Z,7.2295
2023-05-24T11:33:28.097Z,8.3236
2023-05-24T11:34:30.116Z,7.7825
2023-05-24T11:35:32.197Z,8.2107
2023-05-24T11:36:34.235Z,9.3789
2023-05-24T11:37:46.135Z,6.6188
2023-05-24T11:38:38.318Z,7.6496
2023-05-24T11:39:40.399Z,6.2341
2023-05-24T11:40:42.675Z,6.3276
2023-05-24T11:41:44.513Z,6.7515
2023-05-24T11:42:46.548Z,8.6006
2023-05-24T11:43:48.603Z,6.9056
2023-05-24T11:44:51.017Z,7.2426
2023-05-24T11:45:52.802Z,7.2246
2023-05-24T11:46:54.781Z,7.2254
2023-05-24T11:47:56.854Z,7.1840
2023-05-24T11:48:58.804Z,7.5495
2023-05-24T11:50:00.847Z,7.7170
2023-05-24T11:51:02.895Z,7.5494
2023-05-24T11:52:04.966Z,8.3019
2023-05-24T11:53:07.027Z,7.1227
2023-05-24T11:54:09.052Z,8.7263
2023-05-24T11:55:11.115Z,8.3270
2023-05-24T11:56:13.136Z,7.2546
2023-05-24T11:57:15.164Z,7.8967
2023-05-24T11:58:17.253Z,7.1600
2023-05-24T11:59:19.279Z,7.9142
2023-05-24T12:00:21.526Z,6.7152
2023-05-24T12:01:23.584Z,7.4556
2023-05-24T12:02:25.443Z,6.4919
2023-05-24T12:03:27.618Z,7.7504
2023-05-24T12:04:29.742Z,8.0423
2023-05-24T12:05:31.558Z,6.6976
2023-05-24T12:06:33.597Z,7.9895
2023-05-24T12:07:35.690Z,7.5581
2023-05-24T12:08:37.678Z,7.2813
2023-05-24T12:09:39.758Z,7.6560
2023-05-24T12:10:41.991Z,7.4243
2023-05-24T12:11:43.870Z,7.2094
2023-05-24T12:12:46.335Z,8.0093
2023-05-24T12:13:47.917Z,8.4206
2023-05-24T12:14:49.932Z,8.2272
2023-05-24T12:15:54.897Z,8.4489
2023-05-24T12:16:54.043Z,6.9916
2023-05-24T12:17:56.719Z,7.7250
2023-05-24T12:19:05.348Z,6.8275
2023-05-24T12:20:00.315Z,7.2299
2023-05-24T12:21:02.237Z,7.3083
2023-05-24T12:22:04.284Z,7.3870
2023-05-24T12:23:06.317Z,8.0351
2023-05-24T12:24:08.418Z,7.6006
2023-05-24T12:25:10.465Z,7.2194
2023-05-24T12:26:12.448Z,7.5453
2023-05-24T12:27:14.529Z,6.9466
2023-05-24T12:28:16.554Z,7.5777
2023-05-24T12:29:18.805Z,8.4495
2023-05-24T12:30:20.642Z,7.7655
2023-05-24T12:31:22.697Z,7.7646
2023-05-24T12:32:24.791Z,7.0260
2023-05-24T12:33:26.781Z,7.3321
2023-05-24T12:34:28.847Z,6.9675
2023-05-24T12:35:30.884Z,7.9382
2023-05-24T12:36:32.941Z,8.3538
2023-05-24T12:37:34.950Z,9.6063
2023-05-24T12:38:37.009Z,9.0390
2023-05-24T12:39:39.141Z,7.7323
2023-05-24T12:40:41.354Z,7.6774
2023-05-24T12:41:43.239Z,8.9160
2023-05-24T12:42:45.335Z,7.9613
2023-05-24T12:43:47.314Z,8.3231
2023-05-24T12:44:49.377Z,8.7135
2023-05-24T12:45:53.604Z,8.0221
2023-05-24T12:46:53.539Z,7.1434
2023-05-24T12:47:55.526Z,7.6705
2023-05-24T12:48:57.545Z,7.3515
2023-05-24T12:49:59.732Z,8.1267
2023-05-24T12:51:01.697Z,9.1015
2023-05-24T12:52:03.693Z,8.7171
2023-05-24T12:53:05.745Z,9.9245
2023-05-24T12:54:07.822Z,8.8224
2023-05-24T12:55:09.985Z,8.6488
2023-05-24T12:56:11.949Z,8.2926
2023-05-24T12:57:13.981Z,7.6972
2023-05-24T12:58:15.986Z,8.8693
2023-05-24T12:59:18.062Z,8.2764
2023-05-24T13:00:20.055Z,7.7656
2023-05-24T13:01:22.366Z,7.9104
2023-05-24T13:02:24.176Z,8.2932
2023-05-24T13:03:26.189Z,9.1993
2023-05-24T13:04:28.264Z,9.1535
2023-05-24T13:05:30.403Z,8.5773
2023-05-24T13:06:32.334Z,8.6272
2023-05-24T13:07:34.454Z,8.3555
2023-05-24T13:08:38.116Z,8.4190
2023-05-24T13:09:38.506Z,7.5135
2023-05-24T13:10:40.654Z,8.3615
2023-05-24T13:11:42.592Z,7.2547
2023-05-24T13:12:44.619Z,8.0936
2023-05-24T13:13:47.133Z,8.3162
2023-05-24T13:14:50.679Z,9.1914
2023-05-24T13:15:50.759Z,7.8233
2023-05-24T13:16:53.073Z,8.0585
2023-05-24T13:17:54.998Z,8.1188
2023-05-24T13:18:56.924Z,9.0598
2023-05-24T13:20:01.726Z,7.8139
2023-05-24T13:21:00.993Z,7.9554
2023-05-24T13:22:03.062Z,8.0984
2023-05-24T13:23:05.111Z,8.2735
2023-05-24T13:24:07.102Z,8.8827
2023-05-24T13:25:09.157Z,8.9992
2023-05-24T13:26:11.239Z,8.4413
2023-05-24T13:27:13.289Z,7.6213
2023-05-24T13:28:15.324Z,7.3120
2023-05-24T13:29:34.181Z,8.1304
2023-05-24T13:30:19.418Z,7.8779
2023-05-24T13:31:21.488Z,7.4239
2023-05-24T13:32:23.574Z,7.6329
2023-05-24T13:33:25.530Z,10.0728
2023-05-24T13:34:27.582Z,8.3242
2023-05-24T13:35:29.620Z,8.2908
2023-05-24T13:36:31.672Z,8.9392
2023-05-24T13:37:33.754Z,7.1881
2023-05-24T13:38:35.769Z,8.4066
2023-05-24T13:39:37.835Z,8.9184
2023-05-24T13:40:41.777Z,8.2114
2023-05-24T13:41:42.174Z,8.6769
2023-05-24T13:42:44.017Z,7.5380
2023-05-24T13:43:45.985Z,8.2885
2023-05-24T13:44:48.032Z,8.9695
2023-05-24T13:45:50.070Z,8.9245
2023-05-24T13:46:52.165Z,9.4058
2023-05-24T13:47:54.216Z,8.7444
2023-05-24T13:48:56.247Z,7.9441
2023-05-24T13:49:58.241Z,8.9792
2023-05-24T13:51:00.301Z,9.8970
2023-05-24T13:52:02.389Z,9.2204
2023-05-24T13:53:04.414Z,9.1387
2023-05-24T13:54:06.437Z,8.9737
2023-05-24T13:55:08.530Z,8.5134
2023-05-24T13:56:10.516Z,9.2603
2023-05-24T13:57:12.652Z,8.7213
2023-05-24T13:58:14.602Z,7.7459
2023-05-24T13:59:16.735Z,8.4113
2023-05-24T14:00:18.737Z,8.9020
2023-05-24T14:01:20.932Z,7.7478
2023-05-24T14:02:22.848Z,8.5209
2023-05-24T14:03:24.835Z,7.7487
2023-05-24T14:04:26.884Z,7.7606
2023-05-24T14:05:28.969Z,8.1510
2023-05-24T14:06:30.987Z,7.9924
2023-05-24T14:07:33.087Z,8.1361
2023-05-24T14:08:35.097Z,7.8498
2023-05-24T14:09:37.217Z,8.1028
2023-05-24T14:10:39.220Z,7.7756
2023-05-24T14:11:41.348Z,8.4080
2023-05-24T14:12:43.287Z,8.8576
2023-05-24T14:15:49.520Z,8.4366
2023-05-24T14:16:51.453Z,8.0729
2023-05-24T14:17:53.605Z,9.2221
2023-05-24T14:18:55.553Z,7.8043
2023-05-24T14:19:57.750Z,8.6932
2023-05-24T14:20:59.655Z,8.7199
2023-05-24T14:22:01.731Z,8.4448
2023-05-24T14:23:03.932Z,8.5268
2023-05-24T14:24:05.809Z,9.3547
2023-05-24T14:25:07.825Z,8.6962
2023-05-24T14:26:09.935Z,8.9727
2023-05-24T14:27:11.907Z,9.3658
2023-05-24T14:28:14.016Z,8.6972
2023-05-24T14:29:16.084Z,9.6721
2023-05-24T14:30:18.125Z,9.3124
2023-05-24T14:31:20.139Z,8.8819
2023-05-24T14:32:22.386Z,10.0144
2023-05-24T14:33:24.180Z,8.2755
2023-05-24T14:34:26.280Z,8.6119
2023-05-24T14:35:28.313Z,8.7709
2023-05-24T14:36:30.407Z,8.3214
2023-05-24T14:37:32.457Z,9.3101
2023-05-24T14:38:34.418Z,10.8076
2023-05-24T14:39:36.477Z,7.8258
2023-05-24T14:40:39.051Z,11.3988
2023-05-24T14:41:40.585Z,8.1186
2023-05-24T14:42:42.605Z,7.9344
2023-05-24T14:43:44.663Z,8.3639
2023-05-24T14:44:46.716Z,7.4587
2023-05-24T14:45:49.094Z,8.5184
2023-05-24T14:46:52.007Z,8.6434
2023-05-24T14:47:52.909Z,7.7999
2023-05-24T14:48:54.919Z,9.9896
2023-05-24T14:49:56.923Z,8.8886
2023-05-24T14:50:58.993Z,9.2984
2023-05-24T14:52:01.089Z,8.6439
2023-05-24T14:53:03.093Z,9.2925
2023-05-24T14:54:05.180Z,8.5734
2023-05-24T14:55:07.215Z,8.2210
2023-05-24T14:56:09.314Z,8.3198
2023-05-24T14:57:11.313Z,7.3521
2023-05-24T14:58:13.346Z,8.0447
2023-05-24T14:59:15.369Z,7.9535
2023-05-24T15:00:19.784Z,8.4433
2023-05-24T15:01:19.526Z,9.3407
2023-05-24T15:02:21.673Z,9.6789
2023-05-24T15:03:23.717Z,8.8313
2023-05-24T15:04:25.617Z,9.0014
2023-05-24T15:05:27.660Z,9.6994
2023-05-24T15:06:29.729Z,10.0342
2023-05-24T15:07:31.797Z,8.1561
2023-05-24T15:08:33.873Z,9.5973
2023-05-24T15:09:35.826Z,8.0496
2023-05-24T15:10:37.939Z,8.0453
2023-05-24T15:11:40.035Z,10.5806
2023-05-24T15:12:42.057Z,9.1626
2023-05-24T15:13:44.056Z,9.2752
2023-05-24T15:14:46.089Z,9.8597
2023-05-24T15:15:48.130Z,9.3298
2023-05-24T15:16:50.232Z,9.4064
2023-05-24T15:17:52.290Z,9.3641
2023-05-24T15:18:54.283Z,10.4790
2023-05-24T15:19:56.337Z,9.4078
2023-05-24T15:20:58.422Z,9.3000
2023-05-24T15:22:00.534Z,9.7243
2023-05-24T15:23:02.439Z,9.0843
2023-05-24T15:24:04.517Z,10.2595
2023-05-24T15:25:06.570Z,8.3488
2023-05-24T15:26:08.636Z,8.5766
2023-05-24T15:27:10.741Z,9.2105
2023-05-24T15:28:12.806Z,9.4155
2023-05-24T15:29:14.736Z,9.4993
2023-05-24T15:30:16.827Z,8.9766
2023-05-24T15:31:18.867Z,10.1168
2023-05-24T15:32:20.864Z,10.1462
2023-05-24T15:33:23.005Z,11.1476
2023-05-24T15:34:24.976Z,10.3689
2023-05-24T15:35:27.020Z,10.1918
2023-05-24T15:36:29.087Z,10.2523
2023-05-24T15:37:31.151Z,11.5235
2023-05-24T15:38:33.164Z,10.0360
2023-05-24T15:39:35.204Z,10.5965
2023-05-24T15:40:37.247Z,8.5298
2023-05-24T15:41:39.336Z,7.4056
2023-05-24T15:42:41.469Z,9.7697
2023-05-24T15:43:43.426Z,9.6472
2023-05-24T15:44:45.440Z,8.7419
2023-05-24T15:45:47.493Z,8.1966
2023-05-24T15:46:49.606Z,9.7664
2023-05-24T15:47:51.682Z,10.0119
2023-05-24T15:48:53.657Z,9.7207
2023-05-24T15:49:55.754Z,10.6583
2023-05-24T15:51:25.693Z,9.8746
2023-05-24T15:52:04.329Z,8.5360
2023-05-24T15:53:02.069Z,10.8428
2023-05-24T15:54:03.921Z,9.3628
2023-05-24T15:55:05.944Z,10.0679
2023-05-24T15:56:08.064Z,9.9872
2023-05-24T15:57:10.079Z,10.2912
2023-05-24T15:58:12.155Z,10.6836
2023-05-24T15:59:14.191Z,8.9927
2023-05-24T16:00:16.224Z,9.3298
2023-05-24T16:01:18.339Z,9.4653
2023-05-24T16:02:21.616Z,9.0004
2023-05-24T16:03:22.505Z,9.4763
2023-05-24T16:04:24.395Z,8.9876
2023-05-24T16:05:26.567Z,9.5477
2023-05-24T16:06:28.498Z,9.4880
2023-05-24T16:07:30.523Z,11.5694
2023-05-24T16:08:32.601Z,9.2857
2023-05-24T16:09:34.641Z,8.2542
2023-05-24T16:10:36.663Z,8.6664
2023-05-24T16:11:38.710Z,10.5090
2023-05-24T16:12:40.888Z,10.1227
2023-05-24T16:13:42.825Z,9.6844
2023-05-24T16:14:44.910Z,10.8079
2023-05-24T16:15:47.005Z,10.4895
2023-05-24T16:16:49.078Z,9.3014
2023-05-24T16:17:51.148Z,9.9718
2023-05-24T16:18:53.099Z,10.5012
2023-05-24T16:19:55.311Z,9.0327
2023-05-24T16:20:57.311Z,8.2950
2023-05-24T16:21:59.237Z,9.0033
2023-05-24T16:23:01.266Z,10.7260
2023-05-24T16:24:03.336Z,9.4825
2023-05-24T16:25:05.357Z,9.4711
2023-05-24T16:26:07.406Z,9.6582
2023-05-24T16:27:09.526Z,9.8022
2023-05-24T16:28:11.579Z,9.6627
2023-05-24T16:29:13.579Z,7.7440
2023-05-24T16:30:15.731Z,9.1945
2023-05-24T16:31:17.755Z,9.3648
2023-05-24T16:32:19.827Z,10.7587
2023-05-24T16:33:21.763Z,10.3160
2023-05-24T16:34:23.820Z,9.7319
2023-05-24T16:35:25.915Z,10.9973
2023-05-24T16:36:27.865Z,8.7524
2023-05-24T16:37:29.947Z,8.5377
2023-05-24T16:38:33.220Z,10.0082
2023-05-24T16:39:34.105Z,11.5688
2023-05-24T16:40:36.106Z,9.5053
2023-05-24T16:41:38.378Z,8.6269
2023-05-24T16:42:40.182Z,8.9311
2023-05-24T16:43:42.419Z,9.1622
2023-05-24T16:44:44.572Z,9.5168
2023-05-24T16:45:46.462Z,10.9196
2023-05-24T16:46:48.454Z,10.3326
2023-05-24T16:47:50.544Z,10.3257
2023-05-24T16:48:52.576Z,9.6844
2023-05-24T16:49:54.623Z,9.1050
2023-05-24T16:50:56.752Z,10.1429
2023-05-24T16:51:58.832Z,8.7072
2023-05-24T16:53:00.809Z,8.2500
2023-05-24T16:54:02.793Z,9.5130
2023-05-24T16:55:04.900Z,10.2543
2023-05-24T16:56:07.022Z,9.1366
2023-05-24T16:57:09.243Z,9.4180
2023-05-24T16:58:11.002Z,10.4670
2023-05-24T16:59:13.273Z,8.9739
2023-05-24T17:00:15.106Z,9.0148
2023-05-24T17:01:17.191Z,9.4548
2023-05-24T17:02:19.189Z,9.3983
2023-05-24T17:03:21.330Z,8.2151
2023-05-24T17:04:23.302Z,9.0578
2023-05-24T17:05:25.341Z,9.7551
2023-05-24T17:06:27.391Z,8.0460
2023-05-24T17:07:29.426Z,9.6718
2023-05-24T17:08:31.559Z,11.2584
2023-05-24T17:09:33.550Z,8.6994
2023-05-24T17:10:35.550Z,9.5314
2023-05-24T17:11:37.644Z,9.6354
2023-05-24T17:12:39.679Z,8.7092
2023-05-24T17:13:41.715Z,8.6481
2023-05-24T17:14:43.816Z,8.9080
2023-05-24T17:15:45.861Z,8.2674
2023-05-24T17:16:48.005Z,8.3973
2023-05-24T17:17:50.035Z,8.3496
2023-05-24T17:18:51.979Z,8.7063
2023-05-24T17:19:54.114Z,10.1221
2023-05-24T17:20:56.072Z,8.8401
2023-05-24T17:21:58.113Z,10.1510
2023-05-24T17:23:00.179Z,9.1818
2023-05-24T17:24:02.270Z,8.6858
2023-05-24T17:25:04.232Z,9.4187
2023-05-24T17:26:06.437Z,10.6190